sensor_id;sensor_type;location;lat;lon;timestamp;temperature;humidity
20376;DHT22;10347;51.828;6.466;2024-02-16T00:02:17;14.30;99.90
20376;DHT22;10347;51.828;6.466;2024-02-16T00:04:43;14.30;99.90
20376;DHT22;10347;51.828;6.466;2024-02-16T00:07:09;14.20;99.90
20376;DHT22;10347;51.828;6.466;2024-02-16T00:09:35;14.30;99.90
20376;DHT22;10347;51.828;6.466;2024-02-16T00:12:00;14.30;99.90
20376;DHT22;10347;51.828;6.466;2024-02-16T00:14:26;14.30;99.90
20376;DHT22;10347;51.828;6.466;2024-02-16T00:16:52;14.20;99.90
20376;DHT22;10347;51.828;6.466;2024-02-16T00:19:17;14.20;99.90
20376;DHT22;10347;51.828;6.466;2024-02-16T00:21:43;14.20;99.90
20376;DHT22;10347;51.828;6.466;2024-02-16T00:24:09;14.20;99.90
20376;DHT22;10347;51.828;6.466;2024-02-16T00:26:35;14.20;99.90
20376;DHT22;10347;51.828;6.466;2024-02-16T00:29:00;14.20;99.90
20376;DHT22;10347;51.828;6.466;2024-02-16T00:31:26;14.20;99.90
20376;DHT22;10347;51.828;6.466;2024-02-16T00:33:51;14.20;99.90
20376;DHT22;10347;51.828;6.466;2024-02-16T00:36:18;14.20;99.90
20376;DHT22;10347;51.828;6.466;2024-02-16T00:38:43;14.20;99.90
20376;DHT22;10347;51.828;6.466;2024-02-16T00:41:18;14.20;99.90
20376;DHT22;10347;51.828;6.466;2024-02-16T00:43:43;14.10;99.90
20376;DHT22;10347;51.828;6.466;2024-02-16T00:46:10;14.10;99.90
20376;DHT22;10347;51.828;6.466;2024-02-16T00:48:36;14.10;99.90
20376;DHT22;10347;51.828;6.466;2024-02-16T00:51:02;14.10;99.90
20376;DHT22;10347;51.828;6.466;2024-02-16T00:53:27;14.10;99.90
20376;DHT22;10347;51.828;6.466;2024-02-16T00:55:53;14.10;99.90
20376;DHT22;10347;51.828;6.466;2024-02-16T00:58:18;14.10;99.90
20376;DHT22;10347;51.828;6.466;2024-02-16T01:00:45;14.00;99.90
20376;DHT22;10347;51.828;6.466;2024-02-16T01:03:10;14.10;99.90
20376;DHT22;10347;51.828;6.466;2024-02-16T01:05:39;14.10;99.90
20376;DHT22;10347;51.828;6.466;2024-02-16T01:08:05;14.10;99.90
20376;DHT22;10347;51.828;6.466;2024-02-16T01:10:31;14.00;99.90
20376;DHT22;10347;51.828;6.466;2024-02-16T01:12:57;14.00;99.90
20376;DHT22;10347;51.828;6.466;2024-02-16T01:15:23;14.10;99.90
20376;DHT22;10347;51.828;6.466;2024-02-16T01:17:49;14.00;99.90
20376;DHT22;10347;51.828;6.466;2024-02-16T01:20:15;14.00;99.90
20376;DHT22;10347;51.828;6.466;2024-02-16T01:22:40;14.10;99.90
20376;DHT22;10347;51.828;6.466;2024-02-16T01:25:07;14.00;99.90
20376;DHT22;10347;51.828;6.466;2024-02-16T01:27:34;14.00;99.90
20376;DHT22;10347;51.828;6.466;2024-02-16T01:30:00;14.00;99.90
20376;DHT22;10347;51.828;6.466;2024-02-16T01:32:26;14.00;99.90
20376;DHT22;10347;51.828;6.466;2024-02-16T01:34:52;14.00;99.90
20376;DHT22;10347;51.828;6.466;2024-02-16T01:37:17;14.00;99.90
20376;DHT22;10347;51.828;6.466;2024-02-16T01:39:44;14.00;99.90
20376;DHT22;10347;51.828;6.466;2024-02-16T01:42:10;14.00;99.90
20376;DHT22;10347;51.828;6.466;2024-02-16T01:44:36;14.00;99.90
20376;DHT22;10347;51.828;6.466;2024-02-16T01:47:03;14.00;99.90
20376;DHT22;10347;51.828;6.466;2024-02-16T01:49:29;14.00;99.90
20376;DHT22;10347;51.828;6.466;2024-02-16T01:51:56;14.00;99.90
20376;DHT22;10347;51.828;6.466;2024-02-16T01:54:22;14.00;99.90
20376;DHT22;10347;51.828;6.466;2024-02-16T01:56:48;14.00;99.90
20376;DHT22;10347;51.828;6.466;2024-02-16T01:59:16;14.00;99.90
20376;DHT22;10347;51.828;6.466;2024-02-16T02:01:42;14.00;99.90
20376;DHT22;10347;51.828;6.466;2024-02-16T02:04:07;13.90;99.90
20376;DHT22;10347;51.828;6.466;2024-02-16T02:06:33;14.00;99.90
20376;DHT22;10347;51.828;6.466;2024-02-16T02:08:59;13.90;99.90
20376;DHT22;10347;51.828;6.466;2024-02-16T02:11:24;14.00;99.90
20376;DHT22;10347;51.828;6.466;2024-02-16T02:13:50;13.90;99.90
20376;DHT22;10347;51.828;6.466;2024-02-16T02:16:16;14.00;99.90
20376;DHT22;10347;51.828;6.466;2024-02-16T02:18:44;13.90;99.90
20376;DHT22;10347;51.828;6.466;2024-02-16T02:21:09;14.00;99.90
20376;DHT22;10347;51.828;6.466;2024-02-16T02:23:35;13.90;99.90
20376;DHT22;10347;51.828;6.466;2024-02-16T02:26:01;14.00;99.90
20376;DHT22;10347;51.828;6.466;2024-02-16T02:28:27;13.90;99.90
20376;DHT22;10347;51.828;6.466;2024-02-16T02:30:52;13.90;99.90
20376;DHT22;10347;51.828;6.466;2024-02-16T02:33:18;13.80;99.90
20376;DHT22;10347;51.828;6.466;2024-02-16T02:35:45;13.90;99.90
20376;DHT22;10347;51.828;6.466;2024-02-16T02:38:12;13.90;99.90
20376;DHT22;10347;51.828;6.466;2024-02-16T02:40:37;13.90;99.90
20376;DHT22;10347;51.828;6.466;2024-02-16T02:43:03;13.90;99.90
20376;DHT22;10347;51.828;6.466;2024-02-16T02:45:29;13.90;99.90
20376;DHT22;10347;51.828;6.466;2024-02-16T02:47:54;13.90;99.90
20376;DHT22;10347;51.828;6.466;2024-02-16T02:50:20;13.90;99.90
20376;DHT22;10347;51.828;6.466;2024-02-16T02:52:46;13.90;99.90
20376;DHT22;10347;51.828;6.466;2024-02-16T02:55:11;13.90;99.90
20376;DHT22;10347;51.828;6.466;2024-02-16T02:57:37;13.90;99.90
20376;DHT22;10347;51.828;6.466;2024-02-16T03:00:06;13.90;99.90
20376;DHT22;10347;51.828;6.466;2024-02-16T03:02:45;13.90;99.90
20376;DHT22;10347;51.828;6.466;2024-02-16T03:05:11;13.90;99.90
20376;DHT22;10347;51.828;6.466;2024-02-16T03:07:37;13.90;99.90
20376;DHT22;10347;51.828;6.466;2024-02-16T03:10:03;13.80;99.90
20376;DHT22;10347;51.828;6.466;2024-02-16T03:12:29;13.90;99.90
20376;DHT22;10347;51.828;6.466;2024-02-16T03:14:55;13.90;99.90
20376;DHT22;10347;51.828;6.466;2024-02-16T03:17:21;13.90;99.90
20376;DHT22;10347;51.828;6.466;2024-02-16T03:19:46;13.90;99.90
20376;DHT22;10347;51.828;6.466;2024-02-16T03:22:12;13.80;99.90
20376;DHT22;10347;51.828;6.466;2024-02-16T03:24:38;13.90;99.90
20376;DHT22;10347;51.828;6.466;2024-02-16T03:27:03;13.80;99.90
20376;DHT22;10347;51.828;6.466;2024-02-16T03:29:29;13.80;99.90
20376;DHT22;10347;51.828;6.466;2024-02-16T03:31:55;13.80;99.90
20376;DHT22;10347;51.828;6.466;2024-02-16T03:34:20;13.80;99.90
20376;DHT22;10347;51.828;6.466;2024-02-16T03:36:46;13.80;99.90
20376;DHT22;10347;51.828;6.466;2024-02-16T03:39:11;13.90;99.90
20376;DHT22;10347;51.828;6.466;2024-02-16T03:41:37;13.90;99.90
20376;DHT22;10347;51.828;6.466;2024-02-16T03:44:02;13.80;99.90
20376;DHT22;10347;51.828;6.466;2024-02-16T03:46:28;13.80;99.90
20376;DHT22;10347;51.828;6.466;2024-02-16T03:48:54;13.90;99.90
20376;DHT22;10347;51.828;6.466;2024-02-16T03:51:19;13.90;99.90
20376;DHT22;10347;51.828;6.466;2024-02-16T03:53:46;13.80;99.90
20376;DHT22;10347;51.828;6.466;2024-02-16T03:56:11;13.90;99.90
20376;DHT22;10347;51.828;6.466;2024-02-16T03:58:37;13.90;99.90
20376;DHT22;10347;51.828;6.466;2024-02-16T04:01:04;13.90;99.90
20376;DHT22;10347;51.828;6.466;2024-02-16T04:03:32;13.90;99.90
20376;DHT22;10347;51.828;6.466;2024-02-16T04:05:58;13.90;99.90
20376;DHT22;10347;51.828;6.466;2024-02-16T04:08:25;13.80;99.90
20376;DHT22;10347;51.828;6.466;2024-02-16T04:10:50;13.80;99.90
20376;DHT22;10347;51.828;6.466;2024-02-16T04:13:16;13.90;99.90
20376;DHT22;10347;51.828;6.466;2024-02-16T04:15:42;13.90;99.90
20376;DHT22;10347;51.828;6.466;2024-02-16T04:18:07;13.90;99.90
20376;DHT22;10347;51.828;6.466;2024-02-16T04:20:33;13.80;99.90
20376;DHT22;10347;51.828;6.466;2024-02-16T04:22:59;13.90;99.90
20376;DHT22;10347;51.828;6.466;2024-02-16T04:25:25;13.90;99.90
20376;DHT22;10347;51.828;6.466;2024-02-16T04:27:50;13.80;99.90
20376;DHT22;10347;51.828;6.466;2024-02-16T04:30:16;13.90;99.90
20376;DHT22;10347;51.828;6.466;2024-02-16T04:32:41;13.80;99.90
20376;DHT22;10347;51.828;6.466;2024-02-16T04:35:07;13.90;99.90
20376;DHT22;10347;51.828;6.466;2024-02-16T04:37:37;13.80;99.90
20376;DHT22;10347;51.828;6.466;2024-02-16T04:40:04;13.80;99.90
20376;DHT22;10347;51.828;6.466;2024-02-16T04:42:31;13.80;99.90
20376;DHT22;10347;51.828;6.466;2024-02-16T04:44:57;13.80;99.90
20376;DHT22;10347;51.828;6.466;2024-02-16T04:47:22;13.80;99.90
20376;DHT22;10347;51.828;6.466;2024-02-16T04:49:50;13.80;99.90
20376;DHT22;10347;51.828;6.466;2024-02-16T04:52:15;13.80;99.90
20376;DHT22;10347;51.828;6.466;2024-02-16T04:54:41;13.80;99.90
20376;DHT22;10347;51.828;6.466;2024-02-16T04:57:06;13.80;99.90
20376;DHT22;10347;51.828;6.466;2024-02-16T04:59:32;13.80;99.90
20376;DHT22;10347;51.828;6.466;2024-02-16T05:01:58;13.80;99.90
20376;DHT22;10347;51.828;6.466;2024-02-16T05:04:24;13.80;99.90
20376;DHT22;10347;51.828;6.466;2024-02-16T05:06:49;13.80;99.90
20376;DHT22;10347;51.828;6.466;2024-02-16T05:09:17;13.80;99.90
20376;DHT22;10347;51.828;6.466;2024-02-16T05:11:43;13.80;99.90
20376;DHT22;10347;51.828;6.466;2024-02-16T05:14:10;13.80;99.90
20376;DHT22;10347;51.828;6.466;2024-02-16T05:16:43;13.80;99.90
20376;DHT22;10347;51.828;6.466;2024-02-16T05:19:09;13.80;99.90
20376;DHT22;10347;51.828;6.466;2024-02-16T05:21:35;13.80;99.90
20376;DHT22;10347;51.828;6.466;2024-02-16T05:24:01;13.80;99.90
20376;DHT22;10347;51.828;6.466;2024-02-16T05:26:26;13.80;99.90
20376;DHT22;10347;51.828;6.466;2024-02-16T05:28:52;13.80;99.90
20376;DHT22;10347;51.828;6.466;2024-02-16T05:31:18;13.80;99.90
20376;DHT22;10347;51.828;6.466;2024-02-16T05:33:46;13.80;99.90
20376;DHT22;10347;51.828;6.466;2024-02-16T05:36:12;13.70;99.90
20376;DHT22;10347;51.828;6.466;2024-02-16T05:38:38;13.70;99.90
20376;DHT22;10347;51.828;6.466;2024-02-16T05:41:09;13.80;99.90
20376;DHT22;10347;51.828;6.466;2024-02-16T05:43:36;13.80;99.90
20376;DHT22;10347;51.828;6.466;2024-02-16T05:46:04;13.80;99.90
20376;DHT22;10347;51.828;6.466;2024-02-16T05:48:32;13.70;99.90
20376;DHT22;10347;51.828;6.466;2024-02-16T05:51:00;13.80;99.90
20376;DHT22;10347;51.828;6.466;2024-02-16T05:53:27;13.80;99.90
20376;DHT22;10347;51.828;6.466;2024-02-16T05:55:53;13.80;99.90
20376;DHT22;10347;51.828;6.466;2024-02-16T05:58:19;13.70;99.90
20376;DHT22;10347;51.828;6.466;2024-02-16T06:00:44;13.70;99.90
20376;DHT22;10347;51.828;6.466;2024-02-16T06:03:13;13.70;99.90
20376;DHT22;10347;51.828;6.466;2024-02-16T06:05:39;13.70;99.90
20376;DHT22;10347;51.828;6.466;2024-02-16T06:08:06;13.70;99.90
20376;DHT22;10347;51.828;6.466;2024-02-16T06:10:32;13.70;99.90
20376;DHT22;10347;51.828;6.466;2024-02-16T06:12:58;13.70;99.90
20376;DHT22;10347;51.828;6.466;2024-02-16T06:15:24;13.70;99.90
20376;DHT22;10347;51.828;6.466;2024-02-16T06:17:50;13.70;99.90
20376;DHT22;10347;51.828;6.466;2024-02-16T06:20:16;13.70;99.90
20376;DHT22;10347;51.828;6.466;2024-02-16T06:22:42;13.80;99.90
20376;DHT22;10347;51.828;6.466;2024-02-16T06:25:08;13.80;99.90
20376;DHT22;10347;51.828;6.466;2024-02-16T06:27:34;13.80;99.90
20376;DHT22;10347;51.828;6.466;2024-02-16T06:30:00;13.80;99.90
20376;DHT22;10347;51.828;6.466;2024-02-16T06:32:26;13.80;99.90
20376;DHT22;10347;51.828;6.466;2024-02-16T06:34:52;13.70;99.90
20376;DHT22;10347;51.828;6.466;2024-02-16T06:37:18;13.80;99.90
20376;DHT22;10347;51.828;6.466;2024-02-16T06:39:44;13.80;99.90
20376;DHT22;10347;51.828;6.466;2024-02-16T06:42:10;13.80;99.90
20376;DHT22;10347;51.828;6.466;2024-02-16T06:44:38;13.80;99.90
20376;DHT22;10347;51.828;6.466;2024-02-16T06:47:04;13.80;99.90
20376;DHT22;10347;51.828;6.466;2024-02-16T06:49:30;13.80;99.90
20376;DHT22;10347;51.828;6.466;2024-02-16T06:51:55;13.80;99.90
20376;DHT22;10347;51.828;6.466;2024-02-16T06:54:21;13.80;99.90
20376;DHT22;10347;51.828;6.466;2024-02-16T06:56:47;13.80;99.90
20376;DHT22;10347;51.828;6.466;2024-02-16T06:59:13;13.80;99.90
20376;DHT22;10347;51.828;6.466;2024-02-16T07:01:38;13.80;99.90
20376;DHT22;10347;51.828;6.466;2024-02-16T07:04:04;13.80;99.90
20376;DHT22;10347;51.828;6.466;2024-02-16T07:06:30;13.80;99.90
20376;DHT22;10347;51.828;6.466;2024-02-16T07:08:55;13.80;99.90
20376;DHT22;10347;51.828;6.466;2024-02-16T07:11:21;13.80;99.90
20376;DHT22;10347;51.828;6.466;2024-02-16T07:13:46;13.80;99.90
20376;DHT22;10347;51.828;6.466;2024-02-16T07:16:12;13.90;99.90
20376;DHT22;10347;51.828;6.466;2024-02-16T07:18:38;13.90;99.90
20376;DHT22;10347;51.828;6.466;2024-02-16T07:21:03;13.90;99.90
20376;DHT22;10347;51.828;6.466;2024-02-16T07:23:29;13.90;99.90
20376;DHT22;10347;51.828;6.466;2024-02-16T07:25:55;13.80;99.90
20376;DHT22;10347;51.828;6.466;2024-02-16T07:28:25;13.90;99.90
20376;DHT22;10347;51.828;6.466;2024-02-16T07:30:51;13.90;99.90
20376;DHT22;10347;51.828;6.466;2024-02-16T07:33:18;13.90;99.90
20376;DHT22;10347;51.828;6.466;2024-02-16T07:35:44;13.90;99.90
20376;DHT22;10347;51.828;6.466;2024-02-16T07:38:10;13.90;99.90
20376;DHT22;10347;51.828;6.466;2024-02-16T07:40:35;13.90;99.90
20376;DHT22;10347;51.828;6.466;2024-02-16T07:43:01;13.90;99.90
20376;DHT22;10347;51.828;6.466;2024-02-16T07:45:28;13.90;99.90
20376;DHT22;10347;51.828;6.466;2024-02-16T07:47:54;13.90;99.90
20376;DHT22;10347;51.828;6.466;2024-02-16T07:50:22;13.90;99.90
20376;DHT22;10347;51.828;6.466;2024-02-16T07:52:49;14.00;99.90
20376;DHT22;10347;51.828;6.466;2024-02-16T07:55:15;14.00;99.90
20376;DHT22;10347;51.828;6.466;2024-02-16T07:57:46;14.00;99.90
20376;DHT22;10347;51.828;6.466;2024-02-16T08:00:12;14.00;99.90
20376;DHT22;10347;51.828;6.466;2024-02-16T08:02:38;14.00;99.90
20376;DHT22;10347;51.828;6.466;2024-02-16T08:05:05;14.00;99.90
20376;DHT22;10347;51.828;6.466;2024-02-16T08:07:33;14.00;99.90
20376;DHT22;10347;51.828;6.466;2024-02-16T08:09:59;14.10;99.90
20376;DHT22;10347;51.828;6.466;2024-02-16T08:12:26;14.10;99.90
20376;DHT22;10347;51.828;6.466;2024-02-16T08:14:53;14.00;99.90
20376;DHT22;10347;51.828;6.466;2024-02-16T08:17:19;14.10;99.90
20376;DHT22;10347;51.828;6.466;2024-02-16T08:19:51;14.10;99.90
20376;DHT22;10347;51.828;6.466;2024-02-16T08:22:18;14.10;99.90
20376;DHT22;10347;51.828;6.466;2024-02-16T08:24:43;14.20;99.90
20376;DHT22;10347;51.828;6.466;2024-02-16T08:27:11;14.20;99.90
20376;DHT22;10347;51.828;6.466;2024-02-16T08:29:38;14.20;99.90
20376;DHT22;10347;51.828;6.466;2024-02-16T08:32:04;14.20;99.90
20376;DHT22;10347;51.828;6.466;2024-02-16T08:34:31;14.20;99.90
20376;DHT22;10347;51.828;6.466;2024-02-16T08:36:57;14.20;99.90
20376;DHT22;10347;51.828;6.466;2024-02-16T08:39:23;14.30;99.90
20376;DHT22;10347;51.828;6.466;2024-02-16T08:41:51;14.30;99.90
20376;DHT22;10347;51.828;6.466;2024-02-16T08:44:16;14.30;99.90
20376;DHT22;10347;51.828;6.466;2024-02-16T08:46:44;14.30;99.90
20376;DHT22;10347;51.828;6.466;2024-02-16T08:49:11;14.30;99.90
20376;DHT22;10347;51.828;6.466;2024-02-16T08:51:37;14.30;99.90
20376;DHT22;10347;51.828;6.466;2024-02-16T08:54:03;14.40;99.90
20376;DHT22;10347;51.828;6.466;2024-02-16T08:56:30;14.40;99.90
20376;DHT22;10347;51.828;6.466;2024-02-16T08:58:56;14.40;99.90
20376;DHT22;10347;51.828;6.466;2024-02-16T09:01:35;14.40;99.90
20376;DHT22;10347;51.828;6.466;2024-02-16T09:04:01;14.40;99.90
20376;DHT22;10347;51.828;6.466;2024-02-16T09:06:27;14.40;99.90
20376;DHT22;10347;51.828;6.466;2024-02-16T09:08:54;14.40;99.90
20376;DHT22;10347;51.828;6.466;2024-02-16T09:11:19;14.50;99.90
20376;DHT22;10347;51.828;6.466;2024-02-16T09:13:46;14.40;99.90
20376;DHT22;10347;51.828;6.466;2024-02-16T09:16:11;14.40;99.90
20376;DHT22;10347;51.828;6.466;2024-02-16T09:18:37;14.50;99.90
20376;DHT22;10347;51.828;6.466;2024-02-16T09:21:03;14.50;99.90
20376;DHT22;10347;51.828;6.466;2024-02-16T09:23:31;14.50;99.90
20376;DHT22;10347;51.828;6.466;2024-02-16T09:25:57;14.50;99.90
20376;DHT22;10347;51.828;6.466;2024-02-16T09:28:24;14.50;99.90
20376;DHT22;10347;51.828;6.466;2024-02-16T09:30:50;14.60;99.90
20376;DHT22;10347;51.828;6.466;2024-02-16T09:33:15;14.60;99.90
20376;DHT22;10347;51.828;6.466;2024-02-16T09:35:41;14.60;99.90
20376;DHT22;10347;51.828;6.466;2024-02-16T09:38:07;14.60;99.90
20376;DHT22;10347;51.828;6.466;2024-02-16T09:40:36;14.60;99.90
20376;DHT22;10347;51.828;6.466;2024-02-16T09:43:02;14.60;99.90
20376;DHT22;10347;51.828;6.466;2024-02-16T09:45:28;14.60;99.90
20376;DHT22;10347;51.828;6.466;2024-02-16T09:47:54;14.70;99.90
20376;DHT22;10347;51.828;6.466;2024-02-16T09:50:20;14.70;99.90
20376;DHT22;10347;51.828;6.466;2024-02-16T09:52:47;14.70;99.90
20376;DHT22;10347;51.828;6.466;2024-02-16T09:55:14;14.70;99.90
20376;DHT22;10347;51.828;6.466;2024-02-16T09:57:40;14.70;99.90
20376;DHT22;10347;51.828;6.466;2024-02-16T10:00:06;14.70;99.90
20376;DHT22;10347;51.828;6.466;2024-02-16T10:02:45;14.80;99.90
20376;DHT22;10347;51.828;6.466;2024-02-16T10:05:16;14.80;99.90
20376;DHT22;10347;51.828;6.466;2024-02-16T10:07:42;14.80;99.90
20376;DHT22;10347;51.828;6.466;2024-02-16T10:10:27;14.80;99.90
20376;DHT22;10347;51.828;6.466;2024-02-16T10:13:02;14.90;99.90
20376;DHT22;10347;51.828;6.466;2024-02-16T10:15:29;14.90;99.90
20376;DHT22;10347;51.828;6.466;2024-02-16T10:18:01;14.90;99.90
20376;DHT22;10347;51.828;6.466;2024-02-16T10:20:27;14.90;99.90
20376;DHT22;10347;51.828;6.466;2024-02-16T10:23:07;15.00;99.90
20376;DHT22;10347;51.828;6.466;2024-02-16T10:25:34;15.00;99.90
20376;DHT22;10347;51.828;6.466;2024-02-16T10:28:06;15.10;99.90
20376;DHT22;10347;51.828;6.466;2024-02-16T10:30:35;15.10;99.90
20376;DHT22;10347;51.828;6.466;2024-02-16T10:33:02;15.10;99.90
20376;DHT22;10347;51.828;6.466;2024-02-16T10:35:28;15.10;99.90
20376;DHT22;10347;51.828;6.466;2024-02-16T10:37:55;15.10;99.90
20376;DHT22;10347;51.828;6.466;2024-02-16T10:40:22;15.10;99.90
20376;DHT22;10347;51.828;6.466;2024-02-16T10:42:50;15.20;99.90
20376;DHT22;10347;51.828;6.466;2024-02-16T10:45:18;15.20;99.90
20376;DHT22;10347;51.828;6.466;2024-02-16T10:47:45;15.20;99.90
20376;DHT22;10347;51.828;6.466;2024-02-16T10:50:12;15.20;99.90
20376;DHT22;10347;51.828;6.466;2024-02-16T10:52:40;15.10;99.90
20376;DHT22;10347;51.828;6.466;2024-02-16T10:55:07;15.20;99.90
20376;DHT22;10347;51.828;6.466;2024-02-16T10:57:36;15.20;99.90
20376;DHT22;10347;51.828;6.466;2024-02-16T11:00:08;15.20;99.90
20376;DHT22;10347;51.828;6.466;2024-02-16T11:03:01;15.20;99.90
20376;DHT22;10347;51.828;6.466;2024-02-16T11:05:40;15.20;99.90
20376;DHT22;10347;51.828;6.466;2024-02-16T11:08:15;15.20;99.90
20376;DHT22;10347;51.828;6.466;2024-02-16T11:10:41;15.20;99.90
20376;DHT22;10347;51.828;6.466;2024-02-16T11:13:23;15.20;99.90
20376;DHT22;10347;51.828;6.466;2024-02-16T11:15:57;15.20;99.90
20376;DHT22;10347;51.828;6.466;2024-02-16T11:18:24;15.30;99.90
20376;DHT22;10347;51.828;6.466;2024-02-16T11:20:49;15.20;99.90
20376;DHT22;10347;51.828;6.466;2024-02-16T11:23:15;15.30;99.90
20376;DHT22;10347;51.828;6.466;2024-02-16T11:25:50;15.20;99.90
20376;DHT22;10347;51.828;6.466;2024-02-16T11:28:19;15.30;99.90
20376;DHT22;10347;51.828;6.466;2024-02-16T11:30:44;15.20;99.90
20376;DHT22;10347;51.828;6.466;2024-02-16T11:33:11;15.20;99.90
20376;DHT22;10347;51.828;6.466;2024-02-16T11:35:36;15.20;99.90
20376;DHT22;10347;51.828;6.466;2024-02-16T11:38:02;15.20;99.90
20376;DHT22;10347;51.828;6.466;2024-02-16T11:40:28;15.10;99.90
20376;DHT22;10347;51.828;6.466;2024-02-16T11:42:59;15.20;99.90
20376;DHT22;10347;51.828;6.466;2024-02-16T11:45:25;15.10;99.90
20376;DHT22;10347;51.828;6.466;2024-02-16T11:48:08;15.10;99.90
20376;DHT22;10347;51.828;6.466;2024-02-16T11:50:35;15.10;99.90
20376;DHT22;10347;51.828;6.466;2024-02-16T11:53:00;15.00;99.90
20376;DHT22;10347;51.828;6.466;2024-02-16T11:55:26;15.00;99.90
20376;DHT22;10347;51.828;6.466;2024-02-16T11:57:52;15.00;99.90
20376;DHT22;10347;51.828;6.466;2024-02-16T12:00:18;15.00;99.90
20376;DHT22;10347;51.828;6.466;2024-02-16T12:02:44;15.00;99.90
20376;DHT22;10347;51.828;6.466;2024-02-16T12:05:13;15.00;99.90
20376;DHT22;10347;51.828;6.466;2024-02-16T12:07:39;15.00;99.90
20376;DHT22;10347;51.828;6.466;2024-02-16T12:10:06;14.90;99.90
20376;DHT22;10347;51.828;6.466;2024-02-16T12:12:32;14.90;99.90
20376;DHT22;10347;51.828;6.466;2024-02-16T12:14:58;15.00;99.90
20376;DHT22;10347;51.828;6.466;2024-02-16T12:17:24;15.00;99.90
20376;DHT22;10347;51.828;6.466;2024-02-16T12:19:51;14.90;99.90
20376;DHT22;10347;51.828;6.466;2024-02-16T12:22:20;15.00;99.90
20376;DHT22;10347;51.828;6.466;2024-02-16T12:24:47;15.00;99.90
20376;DHT22;10347;51.828;6.466;2024-02-16T12:27:13;15.00;99.90
20376;DHT22;10347;51.828;6.466;2024-02-16T12:29:40;15.00;99.90
20376;DHT22;10347;51.828;6.466;2024-02-16T12:32:06;14.90;99.90
20376;DHT22;10347;51.828;6.466;2024-02-16T12:34:32;15.00;99.90
20376;DHT22;10347;51.828;6.466;2024-02-16T12:36:58;15.00;99.90
20376;DHT22;10347;51.828;6.466;2024-02-16T12:39:24;15.00;99.90
20376;DHT22;10347;51.828;6.466;2024-02-16T12:41:49;15.00;99.90
20376;DHT22;10347;51.828;6.466;2024-02-16T12:44:15;14.90;99.90
20376;DHT22;10347;51.828;6.466;2024-02-16T12:46:41;14.90;99.90
20376;DHT22;10347;51.828;6.466;2024-02-16T12:49:08;15.00;99.90
20376;DHT22;10347;51.828;6.466;2024-02-16T12:51:34;15.00;99.90
20376;DHT22;10347;51.828;6.466;2024-02-16T12:54:00;14.90;99.90
20376;DHT22;10347;51.828;6.466;2024-02-16T12:56:29;14.90;99.90
20376;DHT22;10347;51.828;6.466;2024-02-16T12:58:55;14.90;99.90
20376;DHT22;10347;51.828;6.466;2024-02-16T13:01:20;14.90;99.90
20376;DHT22;10347;51.828;6.466;2024-02-16T13:03:46;14.90;99.90
20376;DHT22;10347;51.828;6.466;2024-02-16T13:06:12;14.90;99.90
20376;DHT22;10347;51.828;6.466;2024-02-16T13:08:38;14.90;99.90
20376;DHT22;10347;51.828;6.466;2024-02-16T13:11:04;14.90;99.90
20376;DHT22;10347;51.828;6.466;2024-02-16T13:13:30;14.90;99.90
20376;DHT22;10347;51.828;6.466;2024-02-16T13:15:57;14.90;99.90
20376;DHT22;10347;51.828;6.466;2024-02-16T13:18:24;14.90;99.90
20376;DHT22;10347;51.828;6.466;2024-02-16T13:20:50;14.90;99.90
20376;DHT22;10347;51.828;6.466;2024-02-16T13:23:15;14.90;99.90
20376;DHT22;10347;51.828;6.466;2024-02-16T13:25:41;14.90;99.90
20376;DHT22;10347;51.828;6.466;2024-02-16T13:28:07;15.00;99.90
20376;DHT22;10347;51.828;6.466;2024-02-16T13:30:32;14.90;99.90
20376;DHT22;10347;51.828;6.466;2024-02-16T13:32:58;15.00;99.90
20376;DHT22;10347;51.828;6.466;2024-02-16T13:35:24;14.90;99.90
20376;DHT22;10347;51.828;6.466;2024-02-16T13:37:50;14.90;99.90
20376;DHT22;10347;51.828;6.466;2024-02-16T13:40:15;14.90;99.90
20376;DHT22;10347;51.828;6.466;2024-02-16T13:42:43;14.80;99.90
20376;DHT22;10347;51.828;6.466;2024-02-16T13:45:09;14.80;99.90
20376;DHT22;10347;51.828;6.466;2024-02-16T13:47:35;14.80;99.90
20376;DHT22;10347;51.828;6.466;2024-02-16T13:50:00;14.80;99.90
20376;DHT22;10347;51.828;6.466;2024-02-16T13:52:26;14.70;99.90
20376;DHT22;10347;51.828;6.466;2024-02-16T13:54:52;14.70;99.90
20376;DHT22;10347;51.828;6.466;2024-02-16T13:57:18;14.70;99.90
20376;DHT22;10347;51.828;6.466;2024-02-16T13:59:45;14.60;99.90
20376;DHT22;10347;51.828;6.466;2024-02-16T14:02:12;14.60;99.90
20376;DHT22;10347;51.828;6.466;2024-02-16T14:04:38;14.60;99.90
20376;DHT22;10347;51.828;6.466;2024-02-16T14:07:04;14.60;99.90
20376;DHT22;10347;51.828;6.466;2024-02-16T14:09:29;14.50;99.90
20376;DHT22;10347;51.828;6.466;2024-02-16T14:11:55;14.50;99.90
20376;DHT22;10347;51.828;6.466;2024-02-16T14:14:23;14.40;99.90
20376;DHT22;10347;51.828;6.466;2024-02-16T14:16:49;14.40;99.90
20376;DHT22;10347;51.828;6.466;2024-02-16T14:19:14;14.50;99.90
20376;DHT22;10347;51.828;6.466;2024-02-16T14:21:40;14.50;99.90
20376;DHT22;10347;51.828;6.466;2024-02-16T14:24:06;14.50;99.90
20376;DHT22;10347;51.828;6.466;2024-02-16T14:26:33;14.50;99.90
20376;DHT22;10347;51.828;6.466;2024-02-16T14:28:58;14.50;99.90
20376;DHT22;10347;51.828;6.466;2024-02-16T14:31:24;14.40;99.90
20376;DHT22;10347;51.828;6.466;2024-02-16T14:33:50;14.40;99.90
20376;DHT22;10347;51.828;6.466;2024-02-16T14:36:15;14.40;99.90
20376;DHT22;10347;51.828;6.466;2024-02-16T14:38:41;14.30;99.90
20376;DHT22;10347;51.828;6.466;2024-02-16T14:41:07;14.30;99.90
20376;DHT22;10347;51.828;6.466;2024-02-16T14:43:33;14.30;99.90
20376;DHT22;10347;51.828;6.466;2024-02-16T14:45:59;14.30;99.90
20376;DHT22;10347;51.828;6.466;2024-02-16T14:48:25;14.30;99.90
20376;DHT22;10347;51.828;6.466;2024-02-16T14:50:51;14.30;99.90
20376;DHT22;10347;51.828;6.466;2024-02-16T14:53:19;14.30;99.90
20376;DHT22;10347;51.828;6.466;2024-02-16T14:55:46;14.30;99.90
20376;DHT22;10347;51.828;6.466;2024-02-16T14:58:12;14.30;99.90
20376;DHT22;10347;51.828;6.466;2024-02-16T15:00:37;14.30;99.90
20376;DHT22;10347;51.828;6.466;2024-02-16T15:03:03;14.30;99.90
20376;DHT22;10347;51.828;6.466;2024-02-16T15:05:29;14.30;99.90
20376;DHT22;10347;51.828;6.466;2024-02-16T15:07:54;14.30;99.90
20376;DHT22;10347;51.828;6.466;2024-02-16T15:10:20;14.30;99.90
20376;DHT22;10347;51.828;6.466;2024-02-16T15:12:46;14.30;99.90
20376;DHT22;10347;51.828;6.466;2024-02-16T15:15:11;14.30;99.90
20376;DHT22;10347;51.828;6.466;2024-02-16T15:17:38;14.30;99.90
20376;DHT22;10347;51.828;6.466;2024-02-16T15:20:05;14.30;99.90
20376;DHT22;10347;51.828;6.466;2024-02-16T15:22:32;14.30;99.90
20376;DHT22;10347;51.828;6.466;2024-02-16T15:24:58;14.30;99.90
20376;DHT22;10347;51.828;6.466;2024-02-16T15:27:23;14.30;99.90